sensor_id;sensor_type;location;lat;lon;timestamp;P1;durP1;ratioP1;P2;durP2;ratioP2
82671;SDS011;72378;52.468;13.432;2024-03-22T00:01:40;15.80;;;7.25;;
82671;SDS011;72378;52.468;13.432;2024-03-22T00:04:06;12.93;;;6.82;;
82671;SDS011;72378;52.468;13.432;2024-03-22T00:06:32;15.60;;;7.22;;
82671;SDS011;72378;52.468;13.432;2024-03-22T00:08:58;15.10;;;7.07;;
82671;SDS011;72378;52.468;13.432;2024-03-22T00:11:23;15.15;;;6.82;;
82671;SDS011;72378;52.468;13.432;2024-03-22T00:13:51;16.50;;;7.30;;
82671;SDS011;72378;52.468;13.432;2024-03-22T00:16:16;16.00;;;6.95;;
82671;SDS011;72378;52.468;13.432;2024-03-22T00:18:43;16.02;;;7.22;;
82671;SDS011;72378;52.468;13.432;2024-03-22T00:21:08;12.80;;;6.77;;
82671;SDS011;72378;52.468;13.432;2024-03-22T00:23:34;15.48;;;7.40;;
82671;SDS011;72378;52.468;13.432;2024-03-22T00:26:00;17.33;;;8.13;;
82671;SDS011;72378;52.468;13.432;2024-03-22T00:28:27;15.80;;;7.70;;
82671;SDS011;72378;52.468;13.432;2024-03-22T00:30:53;16.38;;;7.63;;
82671;SDS011;72378;52.468;13.432;2024-03-22T00:33:20;15.27;;;7.28;;
82671;SDS011;72378;52.468;13.432;2024-03-22T00:35:45;16.08;;;7.68;;
82671;SDS011;72378;52.468;13.432;2024-03-22T00:38:12;15.52;;;7.68;;
82671;SDS011;72378;52.468;13.432;2024-03-22T00:40:37;15.20;;;7.53;;
82671;SDS011;72378;52.468;13.432;2024-03-22T00:43:04;16.58;;;8.00;;
82671;SDS011;72378;52.468;13.432;2024-03-22T00:45:29;16.27;;;7.95;;
82671;SDS011;72378;52.468;13.432;2024-03-22T00:47:57;15.73;;;8.07;;
82671;SDS011;72378;52.468;13.432;2024-03-22T00:52:50;15.30;;;7.30;;
82671;SDS011;72378;52.468;13.432;2024-03-22T00:55:15;14.70;;;7.28;;
82671;SDS011;72378;52.468;13.432;2024-03-22T00:57:42;19.02;;;7.70;;
82671;SDS011;72378;52.468;13.432;2024-03-22T01:00:07;16.60;;;7.50;;
82671;SDS011;72378;52.468;13.432;2024-03-22T01:02:35;16.05;;;7.70;;
82671;SDS011;72378;52.468;13.432;2024-03-22T01:05:02;17.02;;;8.15;;
82671;SDS011;72378;52.468;13.432;2024-03-22T01:07:28;18.83;;;8.05;;
82671;SDS011;72378;52.468;13.432;2024-03-22T01:09:54;17.92;;;8.85;;
82671;SDS011;72378;52.468;13.432;2024-03-22T01:14:46;17.53;;;8.27;;
82671;SDS011;72378;52.468;13.432;2024-03-22T01:17:12;17.02;;;7.90;;
82671;SDS011;72378;52.468;13.432;2024-03-22T01:19:38;18.95;;;8.30;;
82671;SDS011;72378;52.468;13.432;2024-03-22T01:22:05;17.83;;;8.10;;
82671;SDS011;72378;52.468;13.432;2024-03-22T01:24:31;18.92;;;9.07;;
82671;SDS011;72378;52.468;13.432;2024-03-22T01:26:57;19.52;;;9.25;;
82671;SDS011;72378;52.468;13.432;2024-03-22T01:29:23;22.13;;;9.52;;
82671;SDS011;72378;52.468;13.432;2024-03-22T01:31:49;17.83;;;8.73;;
82671;SDS011;72378;52.468;13.432;2024-03-22T01:34:15;18.42;;;8.20;;
82671;SDS011;72378;52.468;13.432;2024-03-22T01:36:41;20.08;;;8.63;;
82671;SDS011;72378;52.468;13.432;2024-03-22T01:39:08;20.77;;;8.45;;
82671;SDS011;72378;52.468;13.432;2024-03-22T01:41:34;19.05;;;8.38;;
82671;SDS011;72378;52.468;13.432;2024-03-22T01:44:00;20.55;;;8.38;;
82671;SDS011;72378;52.468;13.432;2024-03-22T01:46:26;20.13;;;8.65;;
82671;SDS011;72378;52.468;13.432;2024-03-22T01:48:51;19.40;;;8.02;;
82671;SDS011;72378;52.468;13.432;2024-03-22T01:51:18;20.08;;;7.95;;
82671;SDS011;72378;52.468;13.432;2024-03-22T01:53:44;18.08;;;8.95;;
82671;SDS011;72378;52.468;13.432;2024-03-22T01:56:12;19.88;;;8.77;;
82671;SDS011;72378;52.468;13.432;2024-03-22T01:58:38;21.10;;;9.48;;
82671;SDS011;72378;52.468;13.432;2024-03-22T02:01:05;20.15;;;8.30;;
82671;SDS011;72378;52.468;13.432;2024-03-22T02:03:31;21.45;;;8.93;;
82671;SDS011;72378;52.468;13.432;2024-03-22T02:05:57;19.98;;;8.65;;
82671;SDS011;72378;52.468;13.432;2024-03-22T02:08:23;19.50;;;8.85;;
82671;SDS011;72378;52.468;13.432;2024-03-22T02:10:49;20.90;;;8.10;;
82671;SDS011;72378;52.468;13.432;2024-03-22T02:13:16;20.05;;;9.02;;
82671;SDS011;72378;52.468;13.432;2024-03-22T02:15:42;17.38;;;7.72;;
82671;SDS011;72378;52.468;13.432;2024-03-22T02:18:07;18.17;;;7.57;;
82671;SDS011;72378;52.468;13.432;2024-03-22T02:20:34;19.90;;;8.60;;
82671;SDS011;72378;52.468;13.432;2024-03-22T02:23:00;20.98;;;9.45;;
82671;SDS011;72378;52.468;13.432;2024-03-22T02:25:28;20.73;;;8.38;;
82671;SDS011;72378;52.468;13.432;2024-03-22T02:27:53;19.25;;;8.88;;
82671;SDS011;72378;52.468;13.432;2024-03-22T02:30:19;17.60;;;8.02;;
82671;SDS011;72378;52.468;13.432;2024-03-22T02:32:45;19.27;;;8.00;;
82671;SDS011;72378;52.468;13.432;2024-03-22T02:35:11;17.27;;;8.25;;
82671;SDS011;72378;52.468;13.432;2024-03-22T02:37:36;19.52;;;8.63;;
82671;SDS011;72378;52.468;13.432;2024-03-22T02:40:03;20.65;;;8.00;;
82671;SDS011;72378;52.468;13.432;2024-03-22T02:42:31;20.00;;;7.90;;
82671;SDS011;72378;52.468;13.432;2024-03-22T02:44:57;17.73;;;7.97;;
82671;SDS011;72378;52.468;13.432;2024-03-22T02:47:22;19.05;;;7.10;;
82671;SDS011;72378;52.468;13.432;2024-03-22T02:49:49;18.92;;;8.07;;
82671;SDS011;72378;52.468;13.432;2024-03-22T02:52:14;19.27;;;8.20;;
82671;SDS011;72378;52.468;13.432;2024-03-22T02:54:40;21.25;;;8.05;;
82671;SDS011;72378;52.468;13.432;2024-03-22T02:57:06;19.77;;;8.27;;
82671;SDS011;72378;52.468;13.432;2024-03-22T02:59:33;21.33;;;8.77;;
82671;SDS011;72378;52.468;13.432;2024-03-22T03:01:59;20.08;;;7.75;;
82671;SDS011;72378;52.468;13.432;2024-03-22T03:04:25;17.95;;;7.55;;
82671;SDS011;72378;52.468;13.432;2024-03-22T03:06:51;20.70;;;7.72;;
82671;SDS011;72378;52.468;13.432;2024-03-22T03:09:17;19.95;;;8.43;;
82671;SDS011;72378;52.468;13.432;2024-03-22T03:11:43;21.13;;;8.20;;
82671;SDS011;72378;52.468;13.432;2024-03-22T03:14:09;19.98;;;7.38;;
82671;SDS011;72378;52.468;13.432;2024-03-22T03:16:36;18.23;;;7.00;;
82671;SDS011;72378;52.468;13.432;2024-03-22T03:19:02;21.92;;;8.40;;
82671;SDS011;72378;52.468;13.432;2024-03-22T03:21:27;18.92;;;8.32;;
82671;SDS011;72378;52.468;13.432;2024-03-22T03:23:54;18.20;;;7.85;;
82671;SDS011;72378;52.468;13.432;2024-03-22T03:26:19;17.88;;;6.65;;
82671;SDS011;72378;52.468;13.432;2024-03-22T03:28:46;19.10;;;8.05;;
82671;SDS011;72378;52.468;13.432;2024-03-22T03:31:11;20.30;;;7.35;;
82671;SDS011;72378;52.468;13.432;2024-03-22T03:33:39;19.85;;;7.45;;
82671;SDS011;72378;52.468;13.432;2024-03-22T03:36:04;20.90;;;7.45;;
82671;SDS011;72378;52.468;13.432;2024-03-22T03:38:31;18.15;;;7.47;;
82671;SDS011;72378;52.468;13.432;2024-03-22T03:40:56;18.90;;;7.28;;
82671;SDS011;72378;52.468;13.432;2024-03-22T03:43:23;18.75;;;6.75;;
82671;SDS011;72378;52.468;13.432;2024-03-22T03:45:48;20.77;;;7.68;;
82671;SDS011;72378;52.468;13.432;2024-03-22T03:48:14;19.75;;;8.00;;
82671;SDS011;72378;52.468;13.432;2024-03-22T03:50:41;19.45;;;7.10;;
82671;SDS011;72378;52.468;13.432;2024-03-22T03:53:16;17.15;;;7.32;;
82671;SDS011;72378;52.468;13.432;2024-03-22T03:55:41;18.38;;;7.28;;
82671;SDS011;72378;52.468;13.432;2024-03-22T03:58:08;16.38;;;6.22;;
82671;SDS011;72378;52.468;13.432;2024-03-22T04:00:33;15.43;;;6.85;;
82671;SDS011;72378;52.468;13.432;2024-03-22T04:02:59;17.05;;;6.53;;
82671;SDS011;72378;52.468;13.432;2024-03-22T04:05:25;19.30;;;7.68;;
82671;SDS011;72378;52.468;13.432;2024-03-22T04:07:52;18.85;;;7.35;;
82671;SDS011;72378;52.468;13.432;2024-03-22T04:12:44;18.33;;;7.10;;
82671;SDS011;72378;52.468;13.432;2024-03-22T04:15:10;16.52;;;6.38;;
82671;SDS011;72378;52.468;13.432;2024-03-22T04:17:36;15.57;;;6.03;;
82671;SDS011;72378;52.468;13.432;2024-03-22T04:20:02;17.95;;;7.13;;
82671;SDS011;72378;52.468;13.432;2024-03-22T04:22:29;18.92;;;6.82;;
82671;SDS011;72378;52.468;13.432;2024-03-22T04:24:56;18.27;;;7.30;;
82671;SDS011;72378;52.468;13.432;2024-03-22T04:27:22;17.10;;;6.95;;
82671;SDS011;72378;52.468;13.432;2024-03-22T04:29:47;16.15;;;6.57;;
82671;SDS011;72378;52.468;13.432;2024-03-22T04:32:14;18.55;;;7.20;;
82671;SDS011;72378;52.468;13.432;2024-03-22T04:34:41;21.35;;;7.53;;
82671;SDS011;72378;52.468;13.432;2024-03-22T04:37:07;17.30;;;7.03;;
82671;SDS011;72378;52.468;13.432;2024-03-22T04:42:02;14.77;;;5.95;;
82671;SDS011;72378;52.468;13.432;2024-03-22T04:44:29;15.13;;;5.78;;
82671;SDS011;72378;52.468;13.432;2024-03-22T04:46:55;14.65;;;6.28;;
82671;SDS011;72378;52.468;13.432;2024-03-22T04:49:20;16.92;;;6.88;;
82671;SDS011;72378;52.468;13.432;2024-03-22T04:51:47;18.33;;;6.45;;
82671;SDS011;72378;52.468;13.432;2024-03-22T04:54:12;18.80;;;6.88;;
82671;SDS011;72378;52.468;13.432;2024-03-22T04:56:39;17.77;;;6.82;;
82671;SDS011;72378;52.468;13.432;2024-03-22T04:59:07;16.67;;;6.35;;
82671;SDS011;72378;52.468;13.432;2024-03-22T05:01:32;18.02;;;6.65;;
82671;SDS011;72378;52.468;13.432;2024-03-22T05:03:58;17.00;;;7.28;;
82671;SDS011;72378;52.468;13.432;2024-03-22T05:06:24;18.73;;;7.13;;
82671;SDS011;72378;52.468;13.432;2024-03-22T05:08:50;18.65;;;7.35;;
82671;SDS011;72378;52.468;13.432;2024-03-22T05:11:16;18.33;;;7.25;;
82671;SDS011;72378;52.468;13.432;2024-03-22T05:13:42;19.50;;;8.30;;
82671;SDS011;72378;52.468;13.432;2024-03-22T05:16:09;18.77;;;7.47;;
82671;SDS011;72378;52.468;13.432;2024-03-22T05:18:36;18.65;;;7.28;;
82671;SDS011;72378;52.468;13.432;2024-03-22T05:21:01;20.77;;;8.13;;
82671;SDS011;72378;52.468;13.432;2024-03-22T05:23:28;16.08;;;7.05;;
82671;SDS011;72378;52.468;13.432;2024-03-22T05:25:53;18.20;;;7.35;;
82671;SDS011;72378;52.468;13.432;2024-03-22T05:28:19;19.30;;;7.45;;
82671;SDS011;72378;52.468;13.432;2024-03-22T05:30:45;16.60;;;6.55;;
82671;SDS011;72378;52.468;13.432;2024-03-22T05:33:14;18.50;;;7.68;;
82671;SDS011;72378;52.468;13.432;2024-03-22T05:35:39;18.42;;;7.80;;
82671;SDS011;72378;52.468;13.432;2024-03-22T05:38:06;16.88;;;7.40;;
82671;SDS011;72378;52.468;13.432;2024-03-22T05:40:32;19.58;;;7.35;;
82671;SDS011;72378;52.468;13.432;2024-03-22T05:42:58;17.38;;;7.05;;
82671;SDS011;72378;52.468;13.432;2024-03-22T05:45:24;19.65;;;7.18;;
82671;SDS011;72378;52.468;13.432;2024-03-22T05:47:50;18.15;;;7.55;;
82671;SDS011;72378;52.468;13.432;2024-03-22T05:50:17;16.92;;;6.68;;
82671;SDS011;72378;52.468;13.432;2024-03-22T05:52:45;20.05;;;7.32;;
82671;SDS011;72378;52.468;13.432;2024-03-22T05:55:11;18.25;;;7.38;;
82671;SDS011;72378;52.468;13.432;2024-03-22T05:57:37;18.50;;;7.28;;
82671;SDS011;72378;52.468;13.432;2024-03-22T06:00:03;17.63;;;6.75;;
82671;SDS011;72378;52.468;13.432;2024-03-22T06:02:32;17.33;;;6.95;;
82671;SDS011;72378;52.468;13.432;2024-03-22T06:04:57;17.23;;;8.10;;
82671;SDS011;72378;52.468;13.432;2024-03-22T06:07:25;15.98;;;6.32;;
82671;SDS011;72378;52.468;13.432;2024-03-22T06:09:51;15.63;;;6.55;;
82671;SDS011;72378;52.468;13.432;2024-03-22T06:12:18;15.32;;;6.55;;
82671;SDS011;72378;52.468;13.432;2024-03-22T06:14:43;15.95;;;6.20;;
82671;SDS011;72378;52.468;13.432;2024-03-22T06:17:11;15.15;;;6.18;;
82671;SDS011;72378;52.468;13.432;2024-03-22T06:19:37;16.80;;;7.20;;
82671;SDS011;72378;52.468;13.432;2024-03-22T06:22:04;15.02;;;6.60;;
82671;SDS011;72378;52.468;13.432;2024-03-22T06:24:30;14.70;;;6.60;;
82671;SDS011;72378;52.468;13.432;2024-03-22T06:26:57;17.33;;;7.03;;
82671;SDS011;72378;52.468;13.432;2024-03-22T06:29:22;18.15;;;7.38;;
82671;SDS011;72378;52.468;13.432;2024-03-22T06:31:49;15.77;;;7.07;;
82671;SDS011;72378;52.468;13.432;2024-03-22T06:34:15;17.80;;;7.55;;
82671;SDS011;72378;52.468;13.432;2024-03-22T06:39:08;14.95;;;6.60;;
82671;SDS011;72378;52.468;13.432;2024-03-22T06:41:36;19.52;;;7.88;;
82671;SDS011;72378;52.468;13.432;2024-03-22T06:44:02;19.20;;;7.38;;
82671;SDS011;72378;52.468;13.432;2024-03-22T06:46:29;18.10;;;7.35;;
82671;SDS011;72378;52.468;13.432;2024-03-22T06:48:54;18.58;;;7.97;;
82671;SDS011;72378;52.468;13.432;2024-03-22T06:51:21;16.92;;;7.50;;
82671;SDS011;72378;52.468;13.432;2024-03-22T06:53:47;16.48;;;7.38;;
82671;SDS011;72378;52.468;13.432;2024-03-22T06:56:14;21.05;;;7.82;;
82671;SDS011;72378;52.468;13.432;2024-03-22T06:58:41;15.63;;;7.47;;
82671;SDS011;72378;52.468;13.432;2024-03-22T07:01:07;15.98;;;6.72;;
82671;SDS011;72378;52.468;13.432;2024-03-22T07:03:33;18.88;;;7.82;;
82671;SDS011;72378;52.468;13.432;2024-03-22T07:05:59;22.52;;;9.40;;
82671;SDS011;72378;52.468;13.432;2024-03-22T07:08:25;19.10;;;9.18;;
82671;SDS011;72378;52.468;13.432;2024-03-22T07:10:53;19.77;;;8.00;;
82671;SDS011;72378;52.468;13.432;2024-03-22T07:13:19;18.00;;;7.38;;
82671;SDS011;72378;52.468;13.432;2024-03-22T07:15:49;16.45;;;6.97;;
82671;SDS011;72378;52.468;13.432;2024-03-22T07:18:15;16.98;;;8.20;;
82671;SDS011;72378;52.468;13.432;2024-03-22T07:20:42;17.88;;;7.25;;
82671;SDS011;72378;52.468;13.432;2024-03-22T07:23:07;19.98;;;8.70;;
82671;SDS011;72378;52.468;13.432;2024-03-22T07:25:34;20.08;;;8.93;;
82671;SDS011;72378;52.468;13.432;2024-03-22T07:27:59;18.92;;;8.63;;
82671;SDS011;72378;52.468;13.432;2024-03-22T07:30:26;22.65;;;8.45;;
82671;SDS011;72378;52.468;13.432;2024-03-22T07:32:53;19.45;;;8.15;;
82671;SDS011;72378;52.468;13.432;2024-03-22T07:35:19;20.48;;;8.55;;
82671;SDS011;72378;52.468;13.432;2024-03-22T07:37:45;22.70;;;8.90;;
82671;SDS011;72378;52.468;13.432;2024-03-22T07:40:11;20.00;;;8.88;;
82671;SDS011;72378;52.468;13.432;2024-03-22T07:42:37;20.55;;;9.40;;
82671;SDS011;72378;52.468;13.432;2024-03-22T07:45:03;20.33;;;9.02;;
82671;SDS011;72378;52.468;13.432;2024-03-22T07:47:29;20.33;;;8.25;;
82671;SDS011;72378;52.468;13.432;2024-03-22T07:49:57;21.88;;;9.27;;
82671;SDS011;72378;52.468;13.432;2024-03-22T07:54:50;22.75;;;8.73;;
82671;SDS011;72378;52.468;13.432;2024-03-22T07:57:16;23.20;;;8.82;;
82671;SDS011;72378;52.468;13.432;2024-03-22T07:59:42;21.48;;;8.60;;
82671;SDS011;72378;52.468;13.432;2024-03-22T08:02:09;20.42;;;9.13;;
82671;SDS011;72378;52.468;13.432;2024-03-22T08:04:35;21.00;;;8.75;;
82671;SDS011;72378;52.468;13.432;2024-03-22T08:07:02;20.90;;;8.60;;
82671;SDS011;72378;52.468;13.432;2024-03-22T08:09:28;20.23;;;9.30;;
82671;SDS011;72378;52.468;13.432;2024-03-22T08:11:54;20.45;;;8.93;;
82671;SDS011;72378;52.468;13.432;2024-03-22T08:14:20;20.05;;;8.50;;
82671;SDS011;72378;52.468;13.432;2024-03-22T08:16:46;20.58;;;9.18;;
82671;SDS011;72378;52.468;13.432;2024-03-22T08:19:12;20.63;;;9.32;;
82671;SDS011;72378;52.468;13.432;2024-03-22T08:21:38;23.50;;;10.02;;
82671;SDS011;72378;52.468;13.432;2024-03-22T08:24:06;21.50;;;9.18;;
82671;SDS011;72378;52.468;13.432;2024-03-22T08:28:57;21.70;;;8.65;;
82671;SDS011;72378;52.468;13.432;2024-03-22T08:31:23;22.30;;;8.63;;
82671;SDS011;72378;52.468;13.432;2024-03-22T08:33:50;23.75;;;9.20;;
82671;SDS011;72378;52.468;13.432;2024-03-22T08:36:16;24.27;;;9.32;;
82671;SDS011;72378;52.468;13.432;2024-03-22T08:38:42;24.08;;;10.35;;
82671;SDS011;72378;52.468;13.432;2024-03-22T08:41:09;20.73;;;9.23;;
82671;SDS011;72378;52.468;13.432;2024-03-22T08:43:36;19.55;;;9.20;;
82671;SDS011;72378;52.468;13.432;2024-03-22T08:46:02;19.98;;;9.18;;
82671;SDS011;72378;52.468;13.432;2024-03-22T08:48:28;21.85;;;9.60;;
82671;SDS011;72378;52.468;13.432;2024-03-22T08:50:55;20.48;;;8.98;;
82671;SDS011;72378;52.468;13.432;2024-03-22T08:53:20;20.88;;;9.93;;
82671;SDS011;72378;52.468;13.432;2024-03-22T08:55:47;21.17;;;9.32;;
82671;SDS011;72378;52.468;13.432;2024-03-22T08:58:14;20.80;;;9.52;;
82671;SDS011;72378;52.468;13.432;2024-03-22T09:00:42;18.75;;;8.40;;
82671;SDS011;72378;52.468;13.432;2024-03-22T09:03:08;19.45;;;8.80;;
82671;SDS011;72378;52.468;13.432;2024-03-22T09:08:01;21.27;;;8.45;;
82671;SDS011;72378;52.468;13.432;2024-03-22T09:10:28;20.63;;;9.27;;
82671;SDS011;72378;52.468;13.432;2024-03-22T09:12:54;23.92;;;10.38;;
82671;SDS011;72378;52.468;13.432;2024-03-22T09:15:22;21.83;;;9.50;;
82671;SDS011;72378;52.468;13.432;2024-03-22T09:17:49;22.42;;;10.15;;
82671;SDS011;72378;52.468;13.432;2024-03-22T09:20:15;21.27;;;10.38;;
82671;SDS011;72378;52.468;13.432;2024-03-22T09:22:41;21.40;;;9.50;;
82671;SDS011;72378;52.468;13.432;2024-03-22T09:25:07;19.20;;;8.13;;
82671;SDS011;72378;52.468;13.432;2024-03-22T09:27:33;19.05;;;8.15;;
82671;SDS011;72378;52.468;13.432;2024-03-22T09:29:59;19.30;;;9.20;;
82671;SDS011;72378;52.468;13.432;2024-03-22T09:32:27;17.40;;;8.20;;
82671;SDS011;72378;52.468;13.432;2024-03-22T09:34:54;18.05;;;8.02;;
82671;SDS011;72378;52.468;13.432;2024-03-22T09:37:19;19.42;;;8.98;;
82671;SDS011;72378;52.468;13.432;2024-03-22T09:39:45;18.90;;;8.50;;
82671;SDS011;72378;52.468;13.432;2024-03-22T09:42:12;16.75;;;7.97;;
82671;SDS011;72378;52.468;13.432;2024-03-22T09:44:43;18.92;;;8.18;;
82671;SDS011;72378;52.468;13.432;2024-03-22T09:47:13;16.45;;;7.97;;
82671;SDS011;72378;52.468;13.432;2024-03-22T09:49:42;19.15;;;8.63;;
82671;SDS011;72378;52.468;13.432;2024-03-22T09:52:11;18.80;;;8.57;;
82671;SDS011;72378;52.468;13.432;2024-03-22T09:54:39;18.88;;;8.05;;
82671;SDS011;72378;52.468;13.432;2024-03-22T09:57:07;19.58;;;8.98;;
82671;SDS011;72378;52.468;13.432;2024-03-22T09:59:38;17.63;;;8.40;;
82671;SDS011;72378;52.468;13.432;2024-03-22T10:02:04;19.48;;;8.35;;
82671;SDS011;72378;52.468;13.432;2024-03-22T10:04:31;21.10;;;9.57;;
82671;SDS011;72378;52.468;13.432;2024-03-22T10:06:58;20.85;;;8.13;;
82671;SDS011;72378;52.468;13.432;2024-03-22T10:09:28;18.92;;;8.80;;
82671;SDS011;72378;52.468;13.432;2024-03-22T10:11:55;18.95;;;8.30;;
82671;SDS011;72378;52.468;13.432;2024-03-22T10:14:21;16.58;;;7.57;;
82671;SDS011;72378;52.468;13.432;2024-03-22T10:16:47;20.60;;;8.00;;
82671;SDS011;72378;52.468;13.432;2024-03-22T10:19:13;19.50;;;8.85;;
82671;SDS011;72378;52.468;13.432;2024-03-22T10:21:38;17.48;;;8.60;;
82671;SDS011;72378;52.468;13.432;2024-03-22T10:24:06;19.42;;;9.55;;
82671;SDS011;72378;52.468;13.432;2024-03-22T10:26:33;17.45;;;7.95;;
82671;SDS011;72378;52.468;13.432;2024-03-22T10:28:59;17.63;;;8.60;;
82671;SDS011;72378;52.468;13.432;2024-03-22T10:31:25;19.30;;;9.00;;
82671;SDS011;72378;52.468;13.432;2024-03-22T10:33:53;18.27;;;8.32;;
82671;SDS011;72378;52.468;13.432;2024-03-22T10:36:20;19.77;;;8.70;;
82671;SDS011;72378;52.468;13.432;2024-03-22T10:41:17;15.68;;;8.02;;
82671;SDS011;72378;52.468;13.432;2024-03-22T10:43:43;18.38;;;9.68;;
82671;SDS011;72378;52.468;13.432;2024-03-22T10:46:09;17.65;;;8.68;;
82671;SDS011;72378;52.468;13.432;2024-03-22T10:48:36;20.08;;;9.18;;
82671;SDS011;72378;52.468;13.432;2024-03-22T10:51:03;17.35;;;8.10;;
82671;SDS011;72378;52.468;13.432;2024-03-22T10:53:30;20.58;;;8.25;;
82671;SDS011;72378;52.468;13.432;2024-03-22T10:55:57;17.48;;;8.00;;
82671;SDS011;72378;52.468;13.432;2024-03-22T10:58:27;17.80;;;9.63;;
82671;SDS011;72378;52.468;13.432;2024-03-22T11:00:53;18.75;;;8.80;;
82671;SDS011;72378;52.468;13.432;2024-03-22T11:03:20;17.10;;;7.45;;
82671;SDS011;72378;52.468;13.432;2024-03-22T11:05:48;17.75;;;8.65;;
82671;SDS011;72378;52.468;13.432;2024-03-22T11:08:22;18.85;;;9.00;;
82671;SDS011;72378;52.468;13.432;2024-03-22T11:10:49;19.00;;;8.80;;
82671;SDS011;72378;52.468;13.432;2024-03-22T11:13:16;19.33;;;9.15;;
82671;SDS011;72378;52.468;13.432;2024-03-22T11:15:43;17.48;;;7.90;;
82671;SDS011;72378;52.468;13.432;2024-03-22T11:18:10;17.60;;;8.48;;
82671;SDS011;72378;52.468;13.432;2024-03-22T11:20:36;17.30;;;9.68;;
82671;SDS011;72378;52.468;13.432;2024-03-22T11:25:28;18.08;;;7.70;;
82671;SDS011;72378;52.468;13.432;2024-03-22T11:27:57;19.90;;;9.88;;
82671;SDS011;72378;52.468;13.432;2024-03-22T11:30:23;18.38;;;7.40;;
82671;SDS011;72378;52.468;13.432;2024-03-22T11:32:51;18.00;;;8.32;;
82671;SDS011;72378;52.468;13.432;2024-03-22T11:35:17;21.52;;;9.10;;
82671;SDS011;72378;52.468;13.432;2024-03-22T11:37:44;20.77;;;9.98;;
82671;SDS011;72378;52.468;13.432;2024-03-22T11:40:09;17.20;;;7.97;;
82671;SDS011;72378;52.468;13.432;2024-03-22T11:42:37;19.20;;;8.65;;
82671;SDS011;72378;52.468;13.432;2024-03-22T11:45:03;18.73;;;8.90;;
82671;SDS011;72378;52.468;13.432;2024-03-22T11:47:32;16.25;;;7.65;;
82671;SDS011;72378;52.468;13.432;2024-03-22T11:50:01;15.68;;;7.43;;
82671;SDS011;72378;52.468;13.432;2024-03-22T11:52:26;17.25;;;7.90;;
82671;SDS011;72378;52.468;13.432;2024-03-22T11:54:53;17.35;;;7.95;;
82671;SDS011;72378;52.468;13.432;2024-03-22T11:57:20;17.17;;;7.35;;
82671;SDS011;72378;52.468;13.432;2024-03-22T11:59:46;18.33;;;7.70;;
82671;SDS011;72378;52.468;13.432;2024-03-22T12:02:12;15.25;;;7.53;;
82671;SDS011;72378;52.468;13.432;2024-03-22T12:04:40;18.63;;;7.65;;
82671;SDS011;72378;52.468;13.432;2024-03-22T12:07:10;17.77;;;8.50;;
82671;SDS011;72378;52.468;13.432;2024-03-22T12:09:36;18.60;;;8.05;;
82671;SDS011;72378;52.468;13.432;2024-03-22T12:12:03;20.02;;;8.73;;
82671;SDS011;72378;52.468;13.432;2024-03-22T12:14:30;19.38;;;9.38;;
82671;SDS011;72378;52.468;13.432;2024-03-22T12:16:56;17.92;;;8.50;;
82671;SDS011;72378;52.468;13.432;2024-03-22T12:19:23;21.25;;;9.15;;
82671;SDS011;72378;52.468;13.432;2024-03-22T12:21:48;20.42;;;8.65;;
82671;SDS011;72378;52.468;13.432;2024-03-22T12:24:16;17.55;;;7.78;;
82671;SDS011;72378;52.468;13.432;2024-03-22T12:29:08;23.92;;;10.73;;
82671;SDS011;72378;52.468;13.432;2024-03-22T12:31:36;20.67;;;9.45;;
82671;SDS011;72378;52.468;13.432;2024-03-22T12:34:03;19.50;;;8.43;;
82671;SDS011;72378;52.468;13.432;2024-03-22T12:36:30;19.23;;;8.95;;
82671;SDS011;72378;52.468;13.432;2024-03-22T12:38:56;21.83;;;8.90;;
82671;SDS011;72378;52.468;13.432;2024-03-22T12:41:23;21.92;;;9.52;;
82671;SDS011;72378;52.468;13.432;2024-03-22T12:43:49;20.20;;;9.48;;
82671;SDS011;72378;52.468;13.432;2024-03-22T12:46:15;19.95;;;8.07;;
82671;SDS011;72378;52.468;13.432;2024-03-22T12:48:41;20.75;;;9.45;;
82671;SDS011;72378;52.468;13.432;2024-03-22T12:51:07;22.08;;;9.07;;
82671;SDS011;72378;52.468;13.432;2024-03-22T12:53:33;22.40;;;9.82;;
82671;SDS011;72378;52.468;13.432;2024-03-22T12:55:59;22.10;;;9.93;;
82671;SDS011;72378;52.468;13.432;2024-03-22T12:58:30;22.00;;;9.70;;
82671;SDS011;72378;52.468;13.432;2024-03-22T13:00:56;30.25;;;12.93;;
82671;SDS011;72378;52.468;13.432;2024-03-22T13:03:22;26.20;;;11.13;;
82671;SDS011;72378;52.468;13.432;2024-03-22T13:05:48;22.15;;;10.15;;
82671;SDS011;72378;52.468;13.432;2024-03-22T13:08:14;23.23;;;9.65;;
82671;SDS011;72378;52.468;13.432;2024-03-22T13:10:40;21.60;;;9.52;;
82671;SDS011;72378;52.468;13.432;2024-03-22T13:13:09;21.38;;;9.20;;
82671;SDS011;72378;52.468;13.432;2024-03-22T13:15:36;19.02;;;8.38;;
82671;SDS011;72378;52.468;13.432;2024-03-22T13:18:03;19.42;;;7.82;;
82671;SDS011;72378;52.468;13.432;2024-03-22T13:20:29;18.75;;;8.25;;
82671;SDS011;72378;52.468;13.432;2024-03-22T13:22:55;21.65;;;9.05;;
82671;SDS011;72378;52.468;13.432;2024-03-22T13:25:21;23.30;;;10.13;;
82671;SDS011;72378;52.468;13.432;2024-03-22T13:27:48;24.08;;;10.15;;
82671;SDS011;72378;52.468;13.432;2024-03-22T13:30:13;19.10;;;8.60;;
82671;SDS011;72378;52.468;13.432;2024-03-22T13:32:41;18.95;;;8.07;;
82671;SDS011;72378;52.468;13.432;2024-03-22T13:35:07;17.80;;;7.63;;
82671;SDS011;72378;52.468;13.432;2024-03-22T13:37:34;20.70;;;8.10;;
82671;SDS011;72378;52.468;13.432;2024-03-22T13:40:00;21.85;;;8.82;;
82671;SDS011;72378;52.468;13.432;2024-03-22T13:42:26;20.42;;;9.20;;
82671;SDS011;72378;52.468;13.432;2024-03-22T13:44:51;19.85;;;8.85;;
82671;SDS011;72378;52.468;13.432;2024-03-22T13:47:18;23.55;;;8.82;;
82671;SDS011;72378;52.468;13.432;2024-03-22T13:49:45;21.33;;;8.57;;
82671;SDS011;72378;52.468;13.432;2024-03-22T13:52:12;22.58;;;8.98;;
82671;SDS011;72378;52.468;13.432;2024-03-22T13:54:37;22.52;;;8.90;;
82671;SDS011;72378;52.468;13.432;2024-03-22T13:57:03;21.67;;;9.05;;
82671;SDS011;72378;52.468;13.432;2024-03-22T13:59:29;26.75;;;10.20;;
82671;SDS011;72378;52.468;13.432;2024-03-22T14:01:55;20.85;;;9.30;;
82671;SDS011;72378;52.468;13.432;2024-03-22T14:04:21;22.45;;;9.98;;
82671;SDS011;72378;52.468;13.432;2024-03-22T14:06:50;24.90;;;9.77;;
82671;SDS011;72378;52.468;13.432;2024-03-22T14:09:15;22.15;;;9.10;;
82671;SDS011;72378;52.468;13.432;2024-03-22T14:11:41;21.70;;;9.45;;
82671;SDS011;72378;52.468;13.432;2024-03-22T14:14:08;23.55;;;9.50;;
82671;SDS011;72378;52.468;13.432;2024-03-22T14:16:36;21.58;;;8.48;;
82671;SDS011;72378;52.468;13.432;2024-03-22T14:19:02;20.50;;;9.18;;
82671;SDS011;72378;52.468;13.432;2024-03-22T14:21:29;21.98;;;9.52;;
82671;SDS011;72378;52.468;13.432;2024-03-22T14:23:56;19.77;;;7.90;;
82671;SDS011;72378;52.468;13.432;2024-03-22T14:26:22;20.77;;;8.60;;
82671;SDS011;72378;52.468;13.432;2024-03-22T14:28:48;22.02;;;9.35;;
82671;SDS011;72378;52.468;13.432;2024-03-22T14:31:17;19.50;;;8.50;;
82671;SDS011;72378;52.468;13.432;2024-03-22T14:33:42;21.77;;;9.35;;
82671;SDS011;72378;52.468;13.432;2024-03-22T14:36:09;24.27;;;8.90;;
82671;SDS011;72378;52.468;13.432;2024-03-22T14:38:35;18.95;;;8.88;;
82671;SDS011;72378;52.468;13.432;2024-03-22T14:41:03;22.25;;;9.68;;
82671;SDS011;72378;52.468;13.432;2024-03-22T14:43:29;26.25;;;10.38;;